Weather at İstanbul Atatürk Airport

Public forecast

Using degrees Celsius for public forecast. Weather courtesy of forecast.io.

Current aviation weather report (METAR) for İstanbul Atatürk Airport

Retrieved 2022/05/18 05:50 UTC (12 minutes ago):

LTBA 180550Z 26010KT CAVOK 21/12 Q1013 NOSIG RMK RWY23 26011KT

Aviation forecast (TAF) for İstanbul Atatürk Airport

Retrieved 2022/05/18 06:05 UTC (0 seconds ago):

TAF LTBA 180440Z 1806/1912 23009KT CAVOK BECMG 1807/1809 FEW015 SCT030TCU BKN070 BECMG 1809/1812 02020G35KT -SHRA TEMPO 1814/1818 3700 TSRA FEW010 SCT020CB BKN030 BECMG 1816/1818 04015G25KT BECMG 1818/1821 08007KT BECMG 1904/1907 02015KT